Time;durP1;ratioP1;P1;durP2;ratioP2;P2;SDS_P1;SDS_P2;PMS_P1;PMS_P2;Temp;Humidity;BMP_temperature;BMP_pressure;BME280_temperature;BME280_humidity;BME280_pressure;Samples;Min_cycle;Max_cycle;Signal;HPM_P1;HPM_P2
2023/08/30 00:02:05;;;;;;;8.35;7.65;;;15.70;90.40;;;;;;5031548;28;20713;-63
2023/08/30 00:04:30;;;;;;;8.90;8.10;;;15.70;90.40;;;;;;5036550;28;20037;-63
2023/08/30 00:06:56;;;;;;;8.02;7.22;;;15.70;90.40;;;;;;5038390;28;20028;-62
2023/08/30 00:09:21;;;;;;;8.70;7.93;;;15.60;90.40;;;;;;5034929;28;20596;-63
2023/08/30 00:11:47;;;;;;;8.20;7.50;;;15.60;90.90;;;;;;5032381;28;20135;-63
2023/08/30 00:14:13;;;;;;;9.30;8.48;;;15.60;90.50;;;;;;5036274;28;20076;-63
2023/08/30 00:16:38;;;;;;;9.27;7.97;;;15.60;90.50;;;;;;5030458;28;20522;-63
2023/08/30 00:19:04;;;;;;;8.90;8.10;;;15.60;90.50;;;;;;5034599;28;20166;-63
2023/08/30 00:21:30;;;;;;;10.75;8.15;;;15.50;90.60;;;;;;5031681;28;20401;-63
2023/08/30 00:23:55;;;;;;;9.35;8.48;;;15.50;90.60;;;;;;5033911;28;20120;-63
2023/08/30 00:26:21;;;;;;;9.27;8.45;;;15.50;90.60;;;;;;5034007;28;20045;-63
2023/08/30 00:28:47;;;;;;;9.43;8.63;;;15.50;90.60;;;;;;5026385;28;20044;-63
2023/08/30 00:31:12;;;;;;;9.63;8.27;;;15.50;90.60;;;;;;5034725;28;20417;-63
2023/08/30 00:33:38;;;;;;;8.95;8.15;;;15.50;90.60;;;;;;5030336;28;20420;-63
2023/08/30 00:36:04;;;;;;;8.85;8.05;;;15.50;90.60;;;;;;5028808;28;20030;-63
2023/08/30 00:38:30;;;;;;;9.07;8.27;;;15.50;90.60;;;;;;5029637;28;20072;-63
2023/08/30 00:40:56;;;;;;;9.35;8.50;;;15.40;90.60;;;;;;5029599;28;20040;-61
2023/08/30 00:43:21;;;;;;;9.55;8.65;;;15.40;90.60;;;;;;5032195;28;20529;-62
2023/08/30 00:45:48;;;;;;;9.88;8.88;;;15.40;90.60;;;;;;5029658;28;20048;-62
2023/08/30 00:48:15;;;;;;;9.57;8.57;;;15.40;90.60;;;;;;5029408;28;20069;-63
2023/08/30 00:50:42;;;;;;;10.25;9.18;;;15.40;90.60;;;;;;5030497;28;20570;-63
2023/08/30 00:53:10;;;;;;;9.93;8.98;;;15.40;90.60;;;;;;5028528;28;20552;-63
2023/08/30 00:55:37;;;;;;;9.93;9.02;;;15.40;90.60;;;;;;5030464;28;20440;-64
2023/08/30 00:58:03;;;;;;;10.07;9.18;;;15.40;90.60;;;;;;5028455;28;20038;-63
2023/08/30 01:00:30;;;;;;;10.15;9.25;;;15.40;90.60;;;;;;5026206;28;20044;-63
2023/08/30 01:02:57;;;;;;;9.93;9.07;;;15.30;90.60;;;;;;5027123;28;20040;-63
2023/08/30 01:05:23;;;;;;;9.82;8.88;;;15.40;90.60;;;;;;5031710;28;20112;-64
2023/08/30 01:07:52;;;;;;;9.88;8.98;;;15.30;90.60;;;;;;5031118;28;20044;-63
2023/08/30 01:10:21;;;;;;;10.48;9.45;;;15.30;90.70;;;;;;5029899;28;20028;-63
2023/08/30 01:12:50;;;;;;;9.88;8.98;;;15.30;90.70;;;;;;5027520;28;20046;-63
2023/08/30 01:15:19;;;;;;;10.50;9.50;;;15.30;90.70;;;;;;5033322;28;20040;-63
2023/08/30 01:17:51;;;;;;;9.95;9.05;;;15.30;90.80;;;;;;5030815;28;20025;-63
2023/08/30 01:20:19;;;;;;;9.68;8.77;;;15.30;90.70;;;;;;5033082;28;20398;-63
2023/08/30 01:22:53;;;;;;;10.07;9.15;;;15.30;90.70;;;;;;5029202;28;20053;-64
2023/08/30 01:25:37;;;;;;;10.15;9.15;;;15.20;90.70;;;;;;5031430;28;20044;-63
2023/08/30 01:28:05;;;;;;;10.10;9.13;;;15.20;90.70;;;;;;5033601;28;20120;-64
2023/08/30 01:30:33;;;;;;;9.95;9.05;;;15.20;91.00;;;;;;5028215;28;20041;-63
2023/08/30 01:33:01;;;;;;;10.13;9.13;;;15.20;90.60;;;;;;5029765;28;20579;-63
2023/08/30 01:35:32;;;;;;;11.15;9.63;;;15.20;90.60;;;;;;5026728;28;20128;-63
2023/08/30 01:37:59;;;;;;;10.57;9.57;;;15.10;90.60;;;;;;5030275;28;20425;-63
2023/08/30 01:40:26;;;;;;;10.02;9.07;;;15.20;90.60;;;;;;5029159;28;20041;-64
2023/08/30 01:42:53;;;;;;;10.23;9.23;;;15.10;90.50;;;;;;5028980;28;20131;-64
2023/08/30 01:45:22;;;;;;;9.95;9.00;;;15.10;90.60;;;;;;5029884;28;20037;-63
2023/08/30 01:47:48;;;;;;;11.00;9.93;;;15.10;90.60;;;;;;5032801;28;20513;-63
2023/08/30 01:50:15;;;;;;;10.52;9.52;;;15.10;90.60;;;;;;5032670;28;20502;-63
2023/08/30 01:52:41;;;;;;;10.10;9.10;;;15.10;90.60;;;;;;5028843;28;20041;-63
2023/08/30 01:55:08;;;;;;;10.70;9.50;;;15.10;90.60;;;;;;5030433;28;20037;-63
2023/08/30 01:57:34;;;;;;;10.00;9.05;;;15.10;90.60;;;;;;5035026;28;20052;-63
2023/08/30 02:00:00;;;;;;;10.52;9.52;;;15.10;90.60;;;;;;5036392;28;20496;-63
2023/08/30 02:02:29;;;;;;;10.30;9.30;;;15.10;90.60;;;;;;5030616;28;20424;-63
2023/08/30 02:04:54;;;;;;;10.50;9.40;;;15.10;90.60;;;;;;5035076;28;20057;-63
2023/08/30 02:07:45;;;;;;;13.27;10.23;;;15.10;90.60;;;;;;5034747;28;21556;-63
2023/08/30 02:10:17;;;;;;;11.38;10.23;;;15.00;90.60;;;;;;5035004;28;20029;-63
2023/08/30 02:12:47;;;;;;;10.80;9.65;;;15.10;90.60;;;;;;5035351;28;20052;-63
2023/08/30 02:15:14;;;;;;;11.25;10.00;;;15.10;90.60;;;;;;5036686;28;20071;-62
2023/08/30 02:17:40;;;;;;;11.45;10.35;;;15.00;90.60;;;;;;5036453;28;20499;-63
2023/08/30 02:20:07;;;;;;;11.20;10.10;;;15.00;90.60;;;;;;5035734;28;20034;-63
2023/08/30 02:22:33;;;;;;;11.82;10.63;;;14.90;90.60;;;;;;5033283;28;20501;-63
2023/08/30 02:24:59;;;;;;;11.32;10.23;;;14.90;90.60;;;;;;5034743;28;20536;-63
2023/08/30 02:27:25;;;;;;;11.35;10.25;;;14.90;90.60;;;;;;5034895;28;20136;-63
2023/08/30 02:29:50;;;;;;;10.93;9.82;;;14.90;90.70;;;;;;5037278;28;21294;-64
2023/08/30 02:32:20;;;;;;;10.77;9.65;;;14.90;90.70;;;;;;5035361;28;20033;-63
2023/08/30 02:34:49;;;;;;;11.43;10.13;;;14.90;90.80;;;;;;5035919;28;20053;-63
2023/08/30 02:37:15;;;;;;;10.13;9.05;;;14.90;90.80;;;;;;5034845;28;20033;-65
2023/08/30 02:39:40;;;;;;;10.48;9.45;;;14.90;90.80;;;;;;5031829;28;20529;-63
2023/08/30 02:42:06;;;;;;;11.05;9.95;;;14.90;90.90;;;;;;5032275;28;20382;-64
2023/08/30 02:44:31;;;;;;;11.57;10.38;;;14.90;90.90;;;;;;5031921;28;20038;-62
2023/08/30 02:46:57;;;;;;;12.07;10.70;;;15.00;90.90;;;;;;5035827;28;20036;-63
2023/08/30 02:49:22;;;;;;;11.98;10.70;;;15.00;90.90;;;;;;5036106;28;20033;-63
2023/08/30 02:51:48;;;;;;;11.50;10.30;;;15.00;90.90;;;;;;5035943;28;20036;-62
2023/08/30 02:54:14;;;;;;;11.98;10.07;;;15.00;90.80;;;;;;5031328;28;20385;-63
2023/08/30 02:56:43;;;;;;;11.80;10.52;;;15.00;90.80;;;;;;5026646;28;20072;-64
2023/08/30 02:59:09;;;;;;;11.60;10.35;;;14.90;91.20;;;;;;5030391;28;20124;-64
2023/08/30 03:01:35;;;;;;;10.63;9.57;;;15.00;90.80;;;;;;5033368;28;20076;-64
2023/08/30 03:04:00;;;;;;;10.73;9.63;;;15.00;90.80;;;;;;5032649;28;20110;-64
2023/08/30 03:06:26;;;;;;;11.35;10.18;;;15.00;90.90;;;;;;5032427;28;20390;-64
2023/08/30 03:08:53;;;;;;;12.82;9.95;;;15.00;90.90;;;;;;5033346;28;20110;-63
2023/08/30 03:11:19;;;;;;;11.20;9.88;;;14.90;90.90;;;;;;5032737;28;20034;-63
2023/08/30 03:13:45;;;;;;;10.85;9.77;;;14.90;90.90;;;;;;5035600;28;20547;-64
2023/08/30 03:16:11;;;;;;;12.30;10.25;;;15.00;91.00;;;;;;5036101;28;20408;-64
2023/08/30 03:18:38;;;;;;;10.57;9.55;;;14.90;91.00;;;;;;5032267;28;20047;-64
2023/08/30 03:21:03;;;;;;;11.43;10.20;;;15.00;91.00;;;;;;5031675;28;20080;-63
2023/08/30 03:23:31;;;;;;;11.23;10.13;;;15.00;91.00;;;;;;5033405;28;20570;-63
2023/08/30 03:25:57;;;;;;;12.32;10.88;;;15.00;91.00;;;;;;5032707;28;20508;-63
2023/08/30 03:28:23;;;;;;;10.70;9.60;;;15.00;91.00;;;;;;5027811;28;20311;-63
2023/08/30 03:30:49;;;;;;;11.45;10.02;;;15.00;91.00;;;;;;5022612;28;20083;-63
2023/08/30 03:33:14;;;;;;;10.73;9.63;;;15.00;91.00;;;;;;5031304;28;20067;-63
2023/08/30 03:35:40;;;;;;;10.65;9.65;;;15.00;91.00;;;;;;5031925;28;20086;-63
2023/08/30 03:38:05;;;;;;;10.75;9.70;;;15.00;91.00;;;;;;5029376;28;20437;-63
2023/08/30 03:40:31;;;;;;;11.48;10.27;;;15.00;91.00;;;;;;5028434;28;20041;-63
2023/08/30 03:42:56;;;;;;;10.90;9.65;;;15.00;91.00;;;;;;5026764;28;20036;-63
2023/08/30 03:45:22;;;;;;;10.73;9.63;;;15.00;91.00;;;;;;5025493;28;20452;-63
2023/08/30 03:47:48;;;;;;;11.30;10.20;;;15.00;91.00;;;;;;5029368;28;20064;-63
2023/08/30 03:50:13;;;;;;;12.93;10.45;;;15.00;91.00;;;;;;5025638;28;20041;-63
2023/08/30 03:52:39;;;;;;;10.00;9.05;;;15.00;91.10;;;;;;5027257;28;20560;-63
2023/08/30 03:55:05;;;;;;;10.98;9.88;;;15.10;91.10;;;;;;5026635;28;20037;-63
2023/08/30 03:57:30;;;;;;;11.52;10.32;;;15.10;91.20;;;;;;5030934;28;20029;-64
2023/08/30 03:59:56;;;;;;;11.45;10.10;;;15.10;91.20;;;;;;5033857;28;20040;-63
2023/08/30 04:02:22;;;;;;;10.93;9.60;;;15.10;91.20;;;;;;5036687;28;20064;-63
2023/08/30 04:04:48;;;;;;;10.90;9.80;;;15.20;91.10;;;;;;5035357;28;20583;-63
2023/08/30 04:07:14;;;;;;;11.25;10.07;;;15.20;91.10;;;;;;5030638;28;20215;-64
2023/08/30 04:09:39;;;;;;;10.90;9.80;;;15.20;91.00;;;;;;5025961;28;20067;-63
2023/08/30 04:12:06;;;;;;;10.48;9.45;;;15.20;91.00;;;;;;5023364;28;20025;-63
2023/08/30 04:14:31;;;;;;;12.35;9.30;;;15.20;91.00;;;;;;5031283;28;20124;-63
2023/08/30 04:16:57;;;;;;;11.35;9.43;;;15.20;91.00;;;;;;5024220;28;20033;-64
2023/08/30 04:19:23;;;;;;;9.85;8.85;;;15.20;91.00;;;;;;5030657;28;20069;-63
2023/08/30 04:21:48;;;;;;;10.80;9.70;;;15.30;91.00;;;;;;5029005;28;20067;-63
2023/08/30 04:24:15;;;;;;;9.60;8.65;;;15.30;91.00;;;;;;5027327;28;20025;-64
2023/08/30 04:26:41;;;;;;;10.20;9.18;;;15.30;91.00;;;;;;5025446;28;20037;-63
2023/08/30 04:29:06;;;;;;;10.27;9.27;;;15.30;91.00;;;;;;5026379;28;20033;-63
2023/08/30 04:31:32;;;;;;;10.48;9.35;;;15.30;91.00;;;;;;5025200;28;20106;-63
2023/08/30 04:33:58;;;;;;;10.45;9.38;;;15.30;90.90;;;;;;5033117;28;20112;-63
2023/08/30 04:36:23;;;;;;;10.57;9.48;;;15.40;90.90;;;;;;5032804;28;20094;-63
2023/08/30 04:38:49;;;;;;;11.13;9.25;;;15.30;90.90;;;;;;5032742;28;20029;-62
2023/08/30 04:41:14;;;;;;;10.65;9.55;;;15.40;90.90;;;;;;5033595;28;20052;-63
2023/08/30 04:43:40;;;;;;;10.52;9.23;;;15.40;90.90;;;;;;5032537;28;20163;-63
2023/08/30 04:46:06;;;;;;;11.23;9.15;;;15.40;90.90;;;;;;5033016;28;20021;-63
2023/08/30 04:48:31;;;;;;;10.52;9.43;;;15.40;90.90;;;;;;5033682;28;20397;-63
2023/08/30 04:51:04;;;;;;;10.23;9.13;;;15.40;90.80;;;;;;5034274;28;20036;-63
2023/08/30 04:53:30;;;;;;;9.90;8.90;;;15.40;91.10;;;;;;5031117;28;20065;-63
2023/08/30 04:55:56;;;;;;;11.55;10.02;;;15.40;90.80;;;;;;5033637;28;20034;-63
2023/08/30 04:58:22;;;;;;;10.23;9.20;;;15.40;90.70;;;;;;5033454;28;20045;-63
2023/08/30 05:00:48;;;;;;;11.32;9.27;;;15.40;90.70;;;;;;5030235;28;20042;-64
2023/08/30 05:03:13;;;;;;;11.25;9.88;;;15.40;90.70;;;;;;5032318;28;20033;-63
2023/08/30 05:05:39;;;;;;;11.00;9.75;;;15.40;90.80;;;;;;5034168;28;20056;-63
2023/08/30 05:08:05;;;;;;;11.48;9.13;;;15.40;90.80;;;;;;5030862;28;20120;-64
2023/08/30 05:10:32;;;;;;;11.77;10.13;;;15.40;90.80;;;;;;5031216;28;20172;-64
2023/08/30 05:12:57;;;;;;;11.77;10.02;;;15.50;90.80;;;;;;5034568;28;20033;-63
2023/08/30 05:15:23;;;;;;;10.40;9.35;;;15.50;90.80;;;;;;5029944;28;20273;-62
2023/08/30 05:17:48;;;;;;;11.80;10.35;;;15.50;90.80;;;;;;5032415;28;20120;-63
2023/08/30 05:20:14;;;;;;;12.85;10.40;;;15.50;90.80;;;;;;5036272;28;20519;-63
2023/08/30 05:22:39;;;;;;;11.48;9.95;;;15.50;90.70;;;;;;5034945;28;20401;-63
2023/08/30 05:25:05;;;;;;;11.10;10.00;;;15.50;91.10;;;;;;5036128;28;20401;-63
2023/08/30 05:27:31;;;;;;;11.70;9.65;;;15.50;90.70;;;;;;5035442;28;20048;-63
2023/08/30 05:29:56;;;;;;;9.98;9.00;;;15.50;90.70;;;;;;5037324;28;20065;-63
2023/08/30 05:32:22;;;;;;;10.63;9.52;;;15.70;90.80;;;;;;5034982;28;20638;-64
2023/08/30 05:34:48;;;;;;;10.55;9.45;;;15.60;90.80;;;;;;5037544;28;20041;-63
2023/08/30 05:37:13;;;;;;;11.82;9.38;;;15.60;90.80;;;;;;5035625;28;20039;-63
2023/08/30 05:39:39;;;;;;;10.32;9.23;;;15.60;90.80;;;;;;5036315;28;20036;-63
2023/08/30 05:42:05;;;;;;;11.65;9.85;;;15.60;91.20;;;;;;5037427;28;20073;-63
2023/08/30 05:44:30;;;;;;;10.07;9.07;;;15.60;90.80;;;;;;5036819;28;20079;-63
2023/08/30 05:46:56;;;;;;;11.55;8.82;;;15.60;90.70;;;;;;5036992;28;20112;-63
2023/08/30 05:49:22;;;;;;;10.05;9.05;;;15.70;90.80;;;;;;5036567;28;20470;-62
2023/08/30 05:51:47;;;;;;;12.90;9.80;;;15.70;90.80;;;;;;5034021;28;20079;-63
2023/08/30 05:54:13;;;;;;;11.00;9.77;;;15.70;90.80;;;;;;5036784;28;20033;-63
2023/08/30 05:56:39;;;;;;;10.40;9.30;;;15.70;90.70;;;;;;5038914;28;20044;-63
2023/08/30 05:59:05;;;;;;;12.32;9.15;;;15.70;90.70;;;;;;5037505;28;20404;-63
2023/08/30 06:01:30;;;;;;;10.75;9.30;;;15.70;90.70;;;;;;5038950;28;20057;-63
2023/08/30 06:03:56;;;;;;;10.63;9.27;;;15.80;90.80;;;;;;5038597;28;20563;-63
2023/08/30 06:06:21;;;;;;;11.52;9.52;;;15.70;90.70;;;;;;5038449;28;20121;-61
2023/08/30 06:08:47;;;;;;;10.48;9.07;;;15.80;90.70;;;;;;5034883;28;20025;-62
2023/08/30 06:11:13;;;;;;;10.95;9.52;;;15.70;90.60;;;;;;5032951;28;20029;-63
2023/08/30 06:13:39;;;;;;;11.18;9.70;;;15.80;90.60;;;;;;5034721;28;20368;-63
2023/08/30 06:16:05;;;;;;;12.07;9.68;;;15.80;90.60;;;;;;5037244;28;20408;-63
2023/08/30 06:18:34;;;;;;;11.10;9.82;;;15.70;90.60;;;;;;5036187;28;20065;-63
2023/08/30 06:20:59;;;;;;;10.35;9.27;;;15.80;90.60;;;;;;5032613;28;20025;-63
2023/08/30 06:23:25;;;;;;;11.95;9.57;;;15.80;90.70;;;;;;5035323;28;20118;-63
2023/08/30 06:25:57;;;;;;;11.98;9.93;;;15.80;90.70;;;;;;5035709;28;20044;-63
2023/08/30 06:28:23;;;;;;;11.48;9.57;;;15.80;90.70;;;;;;5032850;28;20041;-64
2023/08/30 06:30:50;;;;;;;12.20;9.90;;;15.70;90.60;;;;;;5034533;28;20614;-64
2023/08/30 06:33:16;;;;;;;11.43;10.23;;;15.70;90.60;;;;;;5035855;28;20552;-63
2023/08/30 06:35:42;;;;;;;11.63;10.15;;;15.70;90.70;;;;;;5035786;28;20108;-63
2023/08/30 06:38:08;;;;;;;11.35;10.15;;;15.70;90.80;;;;;;5034692;28;20055;-63
2023/08/30 06:40:33;;;;;;;11.80;9.85;;;15.70;90.80;;;;;;5036548;28;20033;-63
2023/08/30 06:42:59;;;;;;;12.20;10.70;;;15.70;90.80;;;;;;5036149;28;20056;-63
2023/08/30 06:45:25;;;;;;;11.02;9.77;;;15.70;90.90;;;;;;5035956;28;20463;-63
2023/08/30 06:47:52;;;;;;;10.85;9.70;;;15.70;90.90;;;;;;5035218;28;20060;-62
2023/08/30 06:50:18;;;;;;;10.38;9.27;;;15.70;91.00;;;;;;5034434;28;20429;-63
2023/08/30 06:52:43;;;;;;;10.75;9.27;;;15.80;91.00;;;;;;5034657;28;20075;-63
2023/08/30 06:55:09;;;;;;;11.07;9.50;;;15.80;91.00;;;;;;5035959;28;20040;-63
2023/08/30 06:57:35;;;;;;;12.65;9.68;;;15.80;91.00;;;;;;5036678;28;20504;-63
2023/08/30 07:00:07;;;;;;;12.73;10.15;;;15.80;90.90;;;;;;5035935;28;20241;-63
2023/08/30 07:02:37;;;;;;;11.75;10.00;;;15.80;90.90;;;;;;5034530;28;20545;-63
2023/08/30 07:05:04;;;;;;;13.23;9.68;;;15.80;90.90;;;;;;5034140;28;20040;-63
2023/08/30 07:07:31;;;;;;;11.05;9.63;;;15.80;90.80;;;;;;5035579;28;20068;-63
2023/08/30 07:09:56;;;;;;;10.38;9.38;;;15.80;90.80;;;;;;5031070;28;20038;-63
2023/08/30 07:12:22;;;;;;;10.57;9.15;;;15.80;90.80;;;;;;5033712;28;20029;-63
2023/08/30 07:14:48;;;;;;;13.93;9.40;;;15.90;90.80;;;;;;5032769;28;20041;-63
2023/08/30 07:17:13;;;;;;;10.63;9.32;;;15.90;90.80;;;;;;5035158;28;20037;-63
2023/08/30 07:19:39;;;;;;;12.27;9.77;;;15.90;90.80;;;;;;5033216;28;20553;-63
2023/08/30 07:22:04;;;;;;;12.93;9.73;;;15.90;90.70;;;;;;5037070;28;20037;-64
2023/08/30 07:24:30;;;;;;;10.60;9.50;;;15.90;90.70;;;;;;5032281;28;20520;-63
2023/08/30 07:26:56;;;;;;;10.43;9.02;;;15.90;90.70;;;;;;5034392;28;20046;-63
2023/08/30 07:29:21;;;;;;;10.52;9.23;;;15.90;90.70;;;;;;5033680;28;20037;-63
2023/08/30 07:31:47;;;;;;;11.35;9.63;;;15.90;90.80;;;;;;5040192;28;20040;-65
2023/08/30 07:34:13;;;;;;;10.63;8.85;;;15.90;90.70;;;;;;5034273;28;20144;-63
2023/08/30 07:36:38;;;;;;;10.07;8.85;;;16.00;90.80;;;;;;5034002;28;20404;-63
2023/08/30 07:39:04;;;;;;;10.80;9.20;;;16.00;90.80;;;;;;5033720;28;20045;-63
2023/08/30 07:41:29;;;;;;;10.15;9.15;;;16.00;90.70;;;;;;5036371;28;20072;-63
2023/08/30 07:43:55;;;;;;;9.90;8.90;;;16.00;90.60;;;;;;5033260;28;20025;-63
2023/08/30 07:46:21;;;;;;;10.30;9.27;;;16.00;90.60;;;;;;5036431;28;20120;-64
2023/08/30 07:48:47;;;;;;;9.15;8.00;;;16.10;90.60;;;;;;5033665;28;20032;-63
2023/08/30 07:51:12;;;;;;;9.82;8.52;;;16.10;90.60;;;;;;5034396;28;20500;-63
2023/08/30 07:53:38;;;;;;;9.23;8.32;;;16.10;90.50;;;;;;5032450;28;20478;-63
2023/08/30 07:56:04;;;;;;;8.98;7.90;;;16.10;90.40;;;;;;5037401;28;20415;-63
2023/08/30 07:58:29;;;;;;;8.45;7.63;;;16.20;90.50;;;;;;5037218;28;20552;-64
2023/08/30 08:00:55;;;;;;;9.43;8.43;;;16.20;90.50;;;;;;5036115;28;20025;-63
2023/08/30 08:03:21;;;;;;;9.10;8.20;;;16.20;90.60;;;;;;5034282;28;20156;-63
2023/08/30 08:05:47;;;;;;;8.60;7.78;;;16.30;90.60;;;;;;5037372;28;20033;-63
2023/08/30 08:08:14;;;;;;;8.75;7.85;;;16.30;90.60;;;;;;5034429;28;20055;-63
2023/08/30 08:10:40;;;;;;;8.50;7.70;;;16.30;90.60;;;;;;5031559;28;20047;-63
2023/08/30 08:13:05;;;;;;;8.77;7.90;;;16.30;90.60;;;;;;5034415;28;20041;-63
2023/08/30 08:15:31;;;;;;;8.77;7.88;;;16.30;90.50;;;;;;5033207;28;20036;-63
2023/08/30 08:17:57;;;;;;;9.57;8.07;;;16.40;90.60;;;;;;5032729;28;20037;-63
2023/08/30 08:20:23;;;;;;;9.30;8.40;;;16.40;90.60;;;;;;5033973;28;20550;-63
2023/08/30 08:22:48;;;;;;;9.73;7.90;;;16.50;90.60;;;;;;5034558;28;20532;-62
2023/08/30 08:25:14;;;;;;;9.50;8.48;;;16.50;90.60;;;;;;5034742;28;20567;-63
2023/08/30 08:27:40;;;;;;;9.82;8.80;;;16.60;90.60;;;;;;5035729;28;20076;-63
2023/08/30 08:30:06;;;;;;;10.18;8.73;;;16.60;90.40;;;;;;5035637;28;20064;-63
2023/08/30 08:32:33;;;;;;;8.98;8.07;;;16.60;90.30;;;;;;5033243;28;20034;-62
2023/08/30 08:34:58;;;;;;;9.85;8.48;;;16.70;90.20;;;;;;5035933;28;20358;-63
2023/08/30 08:37:24;;;;;;;10.48;9.38;;;16.80;90.10;;;;;;5035173;28;20033;-63
2023/08/30 08:39:50;;;;;;;9.57;8.18;;;16.80;89.50;;;;;;5034171;28;20037;-63
2023/08/30 08:42:19;;;;;;;7.88;7.07;;;16.80;89.80;;;;;;5033888;28;20083;-63
2023/08/30 08:44:51;;;;;;;8.75;7.68;;;16.90;89.70;;;;;;5034223;28;20033;-62
2023/08/30 08:47:18;;;;;;;7.53;6.72;;;16.90;89.10;;;;;;5034994;28;20063;-63
2023/08/30 08:49:44;;;;;;;8.70;7.80;;;16.90;88.90;;;;;;5034312;28;20037;-62
2023/08/30 08:52:10;;;;;;;9.93;7.75;;;17.00;88.80;;;;;;5033000;28;20056;-63
2023/08/30 08:54:39;;;;;;;8.00;7.10;;;17.00;88.50;;;;;;5037446;28;20037;-61
2023/08/30 08:57:07;;;;;;;7.50;6.80;;;17.10;88.30;;;;;;5039701;28;20037;-61
2023/08/30 08:59:32;;;;;;;8.25;7.32;;;17.10;88.10;;;;;;5037337;28;20494;-62
2023/08/30 09:02:00;;;;;;;8.10;7.28;;;17.10;88.10;;;;;;5039562;28;20048;-63
2023/08/30 09:04:26;;;;;;;8.63;7.03;;;17.10;88.00;;;;;;5039112;28;20406;-63
2023/08/30 09:06:52;;;;;;;8.52;7.45;;;17.20;88.30;;;;;;5037770;28;20056;-62
2023/08/30 09:09:18;;;;;;;7.85;7.03;;;17.20;88.00;;;;;;5037881;28;20033;-63
2023/08/30 09:11:44;;;;;;;7.13;6.43;;;17.30;87.60;;;;;;5035056;28;20110;-61
2023/08/30 09:14:09;;;;;;;7.32;6.55;;;17.30;87.10;;;;;;5039319;28;20497;-62
2023/08/30 09:16:35;;;;;;;7.43;6.72;;;17.40;88.00;;;;;;5038311;28;20052;-62
2023/08/30 09:19:02;;;;;;;7.75;6.93;;;17.40;87.10;;;;;;5038434;28;20095;-63
2023/08/30 09:21:28;;;;;;;7.35;6.63;;;17.50;87.10;;;;;;5037950;28;20033;-63
2023/08/30 09:24:07;;;;;;;6.13;5.53;;;17.50;86.80;;;;;;5036405;28;20412;-62
2023/08/30 09:26:34;;;;;;;6.35;5.75;;;17.60;86.20;;;;;;5036804;28;20037;-63
2023/08/30 09:29:03;;;;;;;6.85;6.05;;;17.60;86.70;;;;;;5037718;28;20026;-63
2023/08/30 09:31:41;;;;;;;7.07;6.38;;;17.60;86.20;;;;;;5039027;28;20041;-63
2023/08/30 09:34:07;;;;;;;6.82;5.68;;;17.70;85.20;;;;;;5038824;28;20103;-63
2023/08/30 09:36:36;;;;;;;6.63;5.93;;;17.80;86.70;;;;;;5038538;28;20033;-63
2023/08/30 09:39:12;;;;;;;7.65;5.70;;;17.80;85.70;;;;;;5035053;28;20038;-63
2023/08/30 09:41:42;;;;;;;6.47;5.72;;;17.80;85.50;;;;;;5038621;28;20041;-63
2023/08/30 09:44:29;;;;;;;7.15;5.85;;;17.90;86.00;;;;;;5038360;28;20064;-63
2023/08/30 09:46:55;;;;;;;6.18;5.57;;;17.90;85.90;;;;;;5038145;28;20029;-63
2023/08/30 09:49:23;;;;;;;6.38;5.78;;;18.00;85.70;;;;;;5038923;28;20025;-63
2023/08/30 09:51:51;;;;;;;7.65;5.82;;;18.00;84.80;;;;;;5038808;28;20076;-63
2023/08/30 09:54:21;;;;;;;5.93;5.40;;;18.10;84.80;;;;;;5034632;28;20088;-63
2023/08/30 09:56:47;;;;;;;5.50;5.00;;;18.10;84.30;;;;;;5039551;28;20041;-62
2023/08/30 09:59:14;;;;;;;5.97;4.32;;;18.10;84.40;;;;;;5038322;28;20462;-62
2023/08/30 10:01:41;;;;;;;5.53;5.00;;;18.20;84.70;;;;;;5039452;28;20567;-62
2023/08/30 10:04:09;;;;;;;4.50;4.10;;;18.20;84.60;;;;;;5039219;28;20507;-61
2023/08/30 10:06:36;;;;;;;4.50;4.10;;;18.20;84.60;;;;;;5039007;28;20136;-62
2023/08/30 10:09:04;;;;;;;3.50;3.20;;;18.30;84.30;;;;;;5036871;28;20501;-63
2023/08/30 10:11:32;;;;;;;2.60;2.40;;;18.30;83.60;;;;;;5036767;28;20029;-63
2023/08/30 10:13:59;;;;;;;2.20;2.00;;;18.40;82.50;;;;;;5036822;28;20099;-61
2023/08/30 10:16:26;;;;;;;2.78;2.58;;;18.50;82.00;;;;;;5037576;28;20034;-62
2023/08/30 10:19:01;;;;;;;2.42;2.22;;;18.50;81.90;;;;;;5037753;28;20516;-62
2023/08/30 10:21:27;;;;;;;3.00;2.80;;;18.60;82.00;;;;;;5037585;28;20040;-63
2023/08/30 10:23:55;;;;;;;3.40;2.70;;;18.60;81.50;;;;;;5035722;28;20578;-62
2023/08/30 10:26:24;;;;;;;3.03;2.53;;;18.70;81.50;;;;;;5035931;28;20026;-63
2023/08/30 10:28:52;;;;;;;4.65;2.88;;;18.80;81.00;;;;;;5036828;28;20044;-62
2023/08/30 10:31:17;;;;;;;3.67;2.78;;;18.80;80.30;;;;;;5037793;28;20032;-62
2023/08/30 10:33:55;;;;;;;2.90;2.70;;;18.80;80.00;;;;;;5036712;28;20041;-61
2023/08/30 10:36:25;;;;;;;3.70;2.70;;;18.90;79.20;;;;;;5036879;28;20570;-63
2023/08/30 10:38:52;;;;;;;4.07;2.83;;;18.90;79.90;;;;;;5033660;28;20048;-59
2023/08/30 10:41:26;;;;;;;2.90;2.63;;;18.90;79.10;;;;;;5036381;28;20037;-63
2023/08/30 10:43:55;;;;;;;2.20;2.10;;;19.00;77.00;;;;;;5036939;28;20404;-62
2023/08/30 10:46:35;;;;;;;2.40;2.20;;;19.00;78.00;;;;;;5037397;28;20040;-62
2023/08/30 10:49:14;;;;;;;2.22;1.90;;;19.00;77.30;;;;;;5037657;28;20087;-62
2023/08/30 10:51:40;;;;;;;2.35;2.00;;;19.10;76.50;;;;;;5037883;28;20044;-62
2023/08/30 10:54:16;;;;;;;3.33;2.00;;;19.10;77.20;;;;;;5035906;28;20032;-61
2023/08/30 10:56:51;;;;;;;1.95;1.80;;;19.10;77.00;;;;;;5036994;28;20033;-62
2023/08/30 10:59:20;;;;;;;2.60;1.77;;;19.20;77.10;;;;;;5036194;28;20136;-62
2023/08/30 11:01:47;;;;;;;2.25;1.85;;;19.20;78.00;;;;;;5036004;28;20030;-61
2023/08/30 11:04:15;;;;;;;2.40;2.20;;;19.30;78.40;;;;;;5036900;28;20029;-62
2023/08/30 11:06:42;;;;;;;2.97;2.70;;;19.40;77.60;;;;;;5034368;28;20308;-61
2023/08/30 11:09:08;;;;;;;2.53;2.33;;;19.40;77.80;;;;;;5034850;28;20516;-61
2023/08/30 11:11:36;;;;;;;2.65;2.30;;;19.40;77.30;;;;;;5033137;28;20033;-61
2023/08/30 11:14:08;;;;;;;2.58;2.30;;;19.50;76.40;;;;;;5035826;28;20120;-62
2023/08/30 11:16:38;;;;;;;2.30;2.10;;;19.50;75.60;;;;;;5034786;28;20026;-61
2023/08/30 11:19:05;;;;;;;2.72;2.53;;;19.60;75.40;;;;;;5036318;28;20405;-62
2023/08/30 11:21:33;;;;;;;3.33;2.90;;;19.60;75.60;;;;;;5036293;28;20404;-62
2023/08/30 11:23:59;;;;;;;2.50;2.30;;;19.60;74.90;;;;;;5034624;28;20061;-62
2023/08/30 11:26:25;;;;;;;1.98;1.88;;;19.60;75.30;;;;;;5034981;28;20468;-63
2023/08/30 11:28:52;;;;;;;3.17;1.75;;;19.60;75.10;;;;;;5036224;28;20037;-62
2023/08/30 11:31:28;;;;;;;2.90;2.63;;;19.60;74.80;;;;;;5035838;28;20025;-62
2023/08/30 11:33:55;;;;;;;2.40;2.20;;;19.70;73.20;;;;;;5036172;28;20041;-61
2023/08/30 11:36:22;;;;;;;3.42;2.40;;;19.60;73.90;;;;;;5036178;28;20037;-62
2023/08/30 11:38:49;;;;;;;2.00;1.80;;;19.60;74.70;;;;;;5033979;28;20025;-62
2023/08/30 11:41:15;;;;;;;2.05;1.85;;;19.70;74.80;;;;;;5035168;28;20444;-62
2023/08/30 11:43:40;;;;;;;1.58;1.48;;;19.70;74.80;;;;;;5036205;28;20041;-62
2023/08/30 11:46:06;;;;;;;1.88;1.77;;;19.80;74.80;;;;;;5034613;28;20847;-62
2023/08/30 11:48:32;;;;;;;1.65;1.55;;;19.70;74.30;;;;;;5035212;28;20044;-62
2023/08/30 11:50:59;;;;;;;1.50;1.40;;;19.80;73.80;;;;;;5034876;28;20033;-62
2023/08/30 11:53:25;;;;;;;1.95;1.70;;;19.90;73.50;;;;;;5034387;28;20458;-62
2023/08/30 11:55:52;;;;;;;2.33;1.95;;;19.90;72.60;;;;;;5034666;28;20037;-62
2023/08/30 11:58:20;;;;;;;3.92;1.50;;;19.90;71.70;;;;;;5037800;28;20029;-62
2023/08/30 12:00:50;;;;;;;1.70;1.60;;;19.90;72.00;;;;;;5036065;28;20037;-63
2023/08/30 12:03:16;;;;;;;1.35;1.20;;;19.90;72.10;;;;;;5037658;28;20439;-62
2023/08/30 12:05:48;;;;;;;1.38;1.27;;;19.90;72.20;;;;;;5037016;28;20034;-62
2023/08/30 12:08:26;;;;;;;1.33;1.23;;;20.00;70.40;;;;;;5035337;28;20501;-62
2023/08/30 12:10:53;;;;;;;1.48;1.02;;;20.00;68.30;;;;;;5031587;28;20576;-62
2023/08/30 12:13:28;;;;;;;1.05;1.05;;;20.00;71.10;;;;;;5034974;28;20041;-62
2023/08/30 12:15:55;;;;;;;1.60;1.00;;;20.10;70.20;;;;;;5035493;28;20063;-62
2023/08/30 12:18:28;;;;;;;1.55;1.40;;;20.20;71.30;;;;;;5032586;28;20033;-62
2023/08/30 12:20:57;;;;;;;1.60;1.15;;;20.20;71.10;;;;;;5034748;28;20147;-63
2023/08/30 12:23:25;;;;;;;1.25;1.15;;;20.20;70.60;;;;;;5048355;28;20048;-60
2023/08/30 12:25:57;;;;;;;1.05;0.95;;;20.30;70.90;;;;;;5033972;28;20037;-63
2023/08/30 12:28:23;;;;;;;1.92;1.40;;;20.30;70.60;;;;;;5033772;28;20037;-62
2023/08/30 12:30:49;;;;;;;1.80;1.40;;;20.30;71.30;;;;;;5035486;28;20052;-62
2023/08/30 12:33:16;;;;;;;1.92;1.33;;;20.40;71.50;;;;;;5033764;28;20032;-63
2023/08/30 12:35:42;;;;;;;1.27;1.17;;;20.40;71.40;;;;;;5034774;28;20044;-62
2023/08/30 12:38:09;;;;;;;1.27;1.10;;;20.50;71.20;;;;;;5034138;28;20037;-61
2023/08/30 12:40:35;;;;;;;1.30;1.10;;;20.50;71.00;;;;;;5033751;28;20048;-61